createdAt,value
2022-10-14T00:02:17.281Z,8.30
2022-10-14T00:05:59.298Z,10.63
2022-10-14T00:09:42.553Z,9.25
2022-10-14T00:13:24.549Z,11.52
2022-10-14T00:17:06.522Z,9.90
2022-10-14T00:20:59.277Z,11.30
2022-10-14T00:24:41.369Z,11.48
2022-10-14T00:28:23.372Z,9.80
2022-10-14T00:32:05.522Z,11.88
2022-10-14T00:36:01.472Z,10.30
2022-10-14T00:39:43.445Z,11.10
2022-10-14T00:43:27.314Z,9.38
2022-10-14T00:47:09.727Z,10.23
2022-10-14T00:50:55.248Z,12.50
2022-10-14T00:54:45.782Z,12.05
2022-10-14T01:02:09.836Z,11.25
2022-10-14T01:06:32.024Z,9.23
2022-10-14T01:10:43.929Z,11.80
2022-10-14T01:14:38.785Z,8.10
2022-10-14T01:18:29.654Z,12.60
2022-10-14T01:22:36.686Z,8.75
2022-10-14T01:26:55.956Z,10.38
2022-10-14T01:30:46.431Z,11.30
2022-10-14T01:34:34.789Z,9.40
2022-10-14T01:38:24.412Z,11.95
2022-10-14T01:42:11.497Z,11.03
2022-10-14T01:45:55.342Z,8.00
2022-10-14T01:49:44.233Z,9.75
2022-10-14T01:53:32.183Z,7.30
2022-10-14T01:57:20.303Z,8.43
2022-10-14T02:01:08.363Z,9.65
2022-10-14T02:04:50.691Z,10.77
2022-10-14T02:08:41.709Z,11.38
2022-10-14T02:13:06.247Z,7.18
2022-10-14T02:17:03.424Z,8.05
2022-10-14T02:20:48.147Z,8.00
2022-10-14T02:24:44.028Z,6.25
2022-10-14T02:28:29.658Z,8.48
2022-10-14T02:32:16.541Z,9.18
2022-10-14T02:35:59.216Z,7.40
2022-10-14T02:39:47.002Z,8.05
2022-10-14T02:43:29.112Z,8.45
2022-10-14T02:47:11.058Z,10.02
2022-10-14T02:50:53.053Z,9.23
2022-10-14T02:54:35.085Z,7.00
2022-10-14T02:58:17.560Z,7.95
2022-10-14T03:01:59.583Z,6.28
2022-10-14T03:05:42.693Z,7.55
2022-10-14T03:09:24.716Z,7.20
2022-10-14T03:13:06.688Z,7.75
2022-10-14T03:16:48.692Z,8.50
2022-10-14T03:20:30.754Z,7.93
2022-10-14T03:24:12.716Z,7.72
2022-10-14T03:27:54.691Z,7.45
2022-10-14T03:31:36.652Z,6.22
2022-10-14T03:35:18.694Z,9.23
2022-10-14T03:39:00.590Z,12.13
2022-10-14T03:42:42.742Z,8.45
2022-10-14T03:46:24.947Z,6.95
2022-10-14T03:50:07.622Z,8.25
2022-10-14T03:53:49.635Z,8.75
2022-10-14T03:57:31.580Z,9.32
2022-10-14T04:01:13.583Z,9.55
2022-10-14T04:05:00.626Z,7.75
2022-10-14T04:08:43.601Z,6.60
2022-10-14T04:12:25.694Z,6.75
2022-10-14T04:16:09.665Z,8.43
2022-10-14T04:19:53.087Z,7.25
2022-10-14T04:23:35.202Z,8.50
2022-10-14T04:27:18.503Z,7.43
2022-10-14T04:31:00.751Z,7.20
2022-10-14T04:34:42.694Z,6.70
2022-10-14T04:38:25.204Z,8.93
2022-10-14T04:42:07.439Z,8.23
2022-10-14T04:45:49.841Z,6.88
2022-10-14T04:49:31.917Z,7.22
2022-10-14T04:53:15.318Z,6.53
2022-10-14T04:56:58.674Z,6.78
2022-10-14T05:00:40.715Z,6.72
2022-10-14T05:04:22.721Z,6.57
2022-10-14T05:08:05.032Z,6.45
2022-10-14T05:11:47.711Z,8.88
2022-10-14T05:15:30.219Z,6.80
2022-10-14T05:19:12.200Z,6.85
2022-10-14T05:22:54.122Z,8.57
2022-10-14T05:26:36.184Z,7.28
2022-10-14T05:30:18.343Z,7.47
2022-10-14T05:34:00.371Z,8.77
2022-10-14T05:37:42.542Z,8.20
2022-10-14T05:41:25.862Z,9.52
2022-10-14T05:45:08.291Z,7.10
2022-10-14T05:48:50.275Z,7.88
2022-10-14T05:52:34.339Z,7.78
2022-10-14T05:56:16.568Z,7.30
2022-10-14T05:59:58.578Z,9.45
2022-10-14T06:03:40.842Z,8.68
2022-10-14T06:07:22.930Z,7.80
2022-10-14T06:11:05.068Z,8.05
2022-10-14T06:14:47.017Z,7.82
2022-10-14T06:18:30.313Z,8.38
2022-10-14T06:22:12.563Z,6.53
2022-10-14T06:25:54.829Z,8.02
2022-10-14T06:29:38.534Z,8.30
2022-10-14T06:33:21.091Z,6.22
2022-10-14T06:37:03.094Z,8.18
2022-10-14T06:40:45.042Z,7.72
2022-10-14T06:44:27.043Z,7.97
2022-10-14T06:48:09.137Z,7.80
2022-10-14T06:51:51.080Z,8.55
2022-10-14T06:55:33.127Z,7.55
2022-10-14T06:59:15.145Z,7.22
2022-10-14T07:02:59.614Z,8.52
2022-10-14T07:06:41.880Z,7.88
2022-10-14T07:10:23.966Z,7.47
2022-10-14T07:14:06.011Z,6.88
2022-10-14T07:17:48.037Z,8.32
2022-10-14T07:21:31.011Z,8.90
2022-10-14T07:25:13.680Z,6.47
2022-10-14T07:28:55.955Z,6.53
2022-10-14T07:32:38.214Z,7.53
2022-10-14T07:36:22.550Z,5.57
2022-10-14T07:40:05.754Z,6.47
2022-10-14T07:43:50.780Z,5.90
2022-10-14T07:47:33.889Z,6.70
2022-10-14T07:51:15.921Z,4.78
2022-10-14T07:54:57.922Z,7.07
2022-10-14T08:03:36.484Z,5.97
2022-10-14T08:07:18.644Z,6.75
2022-10-14T08:11:11.839Z,7.90
2022-10-14T08:14:57.436Z,6.30
2022-10-14T08:18:39.466Z,5.88
2022-10-14T08:22:21.696Z,6.45
2022-10-14T08:26:04.590Z,6.22
2022-10-14T08:29:46.549Z,8.13
2022-10-14T08:33:28.566Z,5.20
2022-10-14T08:37:12.093Z,6.00
2022-10-14T08:41:12.523Z,6.22
2022-10-14T08:44:59.486Z,5.45
2022-10-14T08:48:43.057Z,6.53
2022-10-14T08:52:43.087Z,8.52
2022-10-14T08:56:25.034Z,7.10
2022-10-14T09:00:10.087Z,5.43
2022-10-14T09:04:03.345Z,7.13
2022-10-14T09:07:47.745Z,6.70
2022-10-14T09:11:37.396Z,5.50
2022-10-14T09:15:32.661Z,5.90
2022-10-14T09:19:32.860Z,5.32
2022-10-14T09:23:20.421Z,5.70
2022-10-14T09:27:06.920Z,8.38
2022-10-14T09:30:51.011Z,6.30
2022-10-14T09:34:44.510Z,5.63
2022-10-14T09:38:26.960Z,7.05
2022-10-14T09:42:19.992Z,6.20
2022-10-14T09:46:11.243Z,4.93
2022-10-14T09:49:53.423Z,4.88
2022-10-14T09:53:45.478Z,5.22
2022-10-14T09:57:28.262Z,4.30
2022-10-14T10:01:22.988Z,5.28
2022-10-14T10:05:28.532Z,5.05
2022-10-14T10:09:19.018Z,4.57
2022-10-14T10:13:02.717Z,5.30
2022-10-14T10:16:44.748Z,4.32
2022-10-14T10:20:33.844Z,2.95
2022-10-14T10:24:26.010Z,3.45
2022-10-14T10:28:32.175Z,1.75
2022-10-14T10:32:34.998Z,0.80
2022-10-14T10:36:41.320Z,0.68
2022-10-14T10:40:42.230Z,0.30
2022-10-14T10:44:47.576Z,0.30
2022-10-14T10:48:35.410Z,0.95
2022-10-14T10:52:41.192Z,0.68
2022-10-14T10:56:35.422Z,1.15
2022-10-14T11:04:33.584Z,0.40
2022-10-14T11:08:56.745Z,2.05
2022-10-14T11:12:54.843Z,1.20
2022-10-14T11:17:02.922Z,0.90
2022-10-14T11:21:12.264Z,0.40
2022-10-14T11:25:31.710Z,0.45
2022-10-14T11:29:27.169Z,0.57
2022-10-14T11:33:29.956Z,0.82
2022-10-14T11:37:39.336Z,0.68
2022-10-14T11:41:30.404Z,0.98
2022-10-14T11:45:36.560Z,0.25
2022-10-14T11:49:25.394Z,0.47
2022-10-14T11:53:51.633Z,0.75
2022-10-14T11:57:44.023Z,1.25
2022-10-14T12:01:34.198Z,2.00
2022-10-14T12:05:39.560Z,0.93
2022-10-14T12:09:27.295Z,1.25
2022-10-14T12:13:15.820Z,3.10
2022-10-14T12:17:00.303Z,2.75
2022-10-14T12:20:52.020Z,3.00
2022-10-14T12:24:39.357Z,2.65
2022-10-14T12:28:22.310Z,3.35
2022-10-14T12:32:04.202Z,3.88
2022-10-14T12:35:52.895Z,3.78
2022-10-14T12:39:42.288Z,5.63
2022-10-14T12:43:29.826Z,4.57
2022-10-14T12:47:24.463Z,5.47
2022-10-14T12:51:11.896Z,4.47
2022-10-14T12:54:54.785Z,5.30
2022-10-14T12:58:57.725Z,4.35
2022-10-14T13:02:45.835Z,3.58
2022-10-14T13:06:38.545Z,3.60
2022-10-14T13:10:28.572Z,3.60
2022-10-14T13:14:27.519Z,3.80
2022-10-14T13:18:41.843Z,3.17
2022-10-14T13:22:33.208Z,1.73
2022-10-14T13:26:47.801Z,3.38
2022-10-14T13:31:21.679Z,2.85
2022-10-14T14:08:57.232Z,2.67
2022-10-14T14:12:42.981Z,2.65
2022-10-14T14:16:29.385Z,3.78
2022-10-14T14:20:11.649Z,4.72
2022-10-14T14:23:56.722Z,4.03
2022-10-14T14:27:45.942Z,4.28
2022-10-14T14:31:47.914Z,3.80
2022-10-14T14:35:30.572Z,2.40
2022-10-14T14:39:42.296Z,3.38
2022-10-14T14:43:24.391Z,1.92
2022-10-14T14:47:07.411Z,3.30
2022-10-14T14:50:49.559Z,2.85
2022-10-14T14:54:31.878Z,2.40
2022-10-14T14:58:28.034Z,3.40
2022-10-14T15:02:16.757Z,3.47
2022-10-14T15:06:06.026Z,2.50
2022-10-14T15:09:51.969Z,4.07
2022-10-14T15:13:39.757Z,5.85
2022-10-14T15:17:40.197Z,4.43
2022-10-14T15:21:22.850Z,2.35
2022-10-14T15:25:10.578Z,4.75
2022-10-14T15:29:04.766Z,4.72
2022-10-14T15:32:47.455Z,4.30
2022-10-14T15:36:33.646Z,5.75
2022-10-14T15:40:19.694Z,5.35
2022-10-14T15:44:01.732Z,3.63
2022-10-14T15:47:43.864Z,4.25
2022-10-14T15:51:30.552Z,4.20
2022-10-14T15:55:19.916Z,4.82
2022-10-14T15:59:01.930Z,4.18
2022-10-14T16:02:44.451Z,4.25
2022-10-14T16:06:29.458Z,3.50
2022-10-14T16:10:14.824Z,3.92
2022-10-14T16:13:57.290Z,4.95
2022-10-14T16:17:39.291Z,5.38
2022-10-14T16:21:21.340Z,3.78
2022-10-14T16:25:03.502Z,3.72
2022-10-14T16:28:45.606Z,5.10
2022-10-14T16:32:27.787Z,7.97
2022-10-14T16:36:15.005Z,8.32
2022-10-14T16:39:57.067Z,8.68
2022-10-14T16:43:39.145Z,7.30
2022-10-14T16:47:22.675Z,5.20
2022-10-14T16:51:05.000Z,5.70
2022-10-14T16:54:47.456Z,4.20
2022-10-14T16:58:29.445Z,4.35
2022-10-14T17:02:15.172Z,4.65
2022-10-14T17:05:58.743Z,3.78
2022-10-14T17:09:41.087Z,3.08
2022-10-14T17:13:23.013Z,4.78
2022-10-14T17:17:05.156Z,5.30
2022-10-14T17:20:47.484Z,4.57
2022-10-14T17:24:30.079Z,3.65
2022-10-14T17:28:13.243Z,4.40
2022-10-14T17:31:55.334Z,3.97
2022-10-14T17:35:37.306Z,4.00
2022-10-14T17:39:25.966Z,4.22
2022-10-14T17:43:11.309Z,5.70
2022-10-14T17:46:53.543Z,4.18
2022-10-14T17:50:38.637Z,6.45
2022-10-14T17:54:21.088Z,6.03
2022-10-14T17:58:03.308Z,4.00
2022-10-14T18:05:48.963Z,4.82
2022-10-14T18:09:31.586Z,5.60
2022-10-14T18:13:13.584Z,10.35
2022-10-14T18:16:59.452Z,5.32
2022-10-14T18:20:41.590Z,14.45
2022-10-14T18:24:23.952Z,21.55
2022-10-14T18:28:05.935Z,12.05
2022-10-14T18:35:37.448Z,6.00
2022-10-14T18:39:20.656Z,7.43
2022-10-14T18:43:05.536Z,13.60
2022-10-14T18:46:47.711Z,7.78
2022-10-14T18:50:29.710Z,49.72
2022-10-14T18:54:17.790Z,33.33
2022-10-14T18:57:59.847Z,14.05
2022-10-14T19:01:43.364Z,10.85
2022-10-14T19:05:27.587Z,12.23
2022-10-14T19:09:12.957Z,8.57
2022-10-14T19:12:55.314Z,14.63
2022-10-14T19:16:39.190Z,15.15
2022-10-14T19:20:21.354Z,17.90
2022-10-14T19:24:04.046Z,12.98
2022-10-14T19:27:46.342Z,6.10
2022-10-14T20:11:05.774Z,5.72
2022-10-14T20:14:48.167Z,9.00
2022-10-14T20:18:30.954Z,10.80
2022-10-14T20:22:13.049Z,8.10
2022-10-14T20:26:17.346Z,8.30
2022-10-14T20:29:59.525Z,5.93
2022-10-14T20:33:42.146Z,6.93
2022-10-14T20:37:27.258Z,10.20
2022-10-14T20:41:26.310Z,8.18
2022-10-14T20:45:08.954Z,18.77
2022-10-14T20:48:58.863Z,15.73
2022-10-14T20:52:41.635Z,11.98
2022-10-14T20:56:23.921Z,8.73
2022-10-14T21:00:07.470Z,7.30
2022-10-14T21:03:49.766Z,9.35
2022-10-14T21:07:32.038Z,8.38
2022-10-14T21:11:16.944Z,11.27
2022-10-14T21:14:59.137Z,7.80
2022-10-14T21:18:44.634Z,7.30
2022-10-14T21:22:26.643Z,25.20
2022-10-14T21:26:09.419Z,17.30
2022-10-14T21:29:51.659Z,9.85
2022-10-14T21:33:35.214Z,11.55
2022-10-14T21:37:18.254Z,13.63
2022-10-14T21:41:02.623Z,15.88
2022-10-14T21:44:45.017Z,22.00
2022-10-14T21:48:27.635Z,17.67
2022-10-14T21:59:57.608Z,47.22
2022-10-14T22:03:41.048Z,13.55
2022-10-14T22:07:25.163Z,18.88
2022-10-14T22:11:22.600Z,7.57
2022-10-14T22:15:08.412Z,9.25
2022-10-14T22:18:52.333Z,8.25
2022-10-14T22:22:34.897Z,7.68
2022-10-14T22:26:19.515Z,6.70
2022-10-14T22:30:01.883Z,6.30
2022-10-14T22:33:44.566Z,8.75
2022-10-14T22:37:26.780Z,8.90
2022-10-14T22:41:10.402Z,7.72
2022-10-14T22:44:52.604Z,7.70
2022-10-14T22:48:35.842Z,10.07
2022-10-14T22:52:18.120Z,11.60
2022-10-14T22:56:00.855Z,7.28
2022-10-14T22:59:43.200Z,6.97
2022-10-14T23:03:26.441Z,5.38
2022-10-14T23:07:08.937Z,4.93
2022-10-14T23:10:52.047Z,5.15
2022-10-14T23:14:34.229Z,6.35
2022-10-14T23:18:16.333Z,6.50
2022-10-14T23:21:58.776Z,4.95
2022-10-14T23:25:42.510Z,5.43
2022-10-14T23:29:24.700Z,6.05
2022-10-14T23:33:11.834Z,6.00
2022-10-14T23:40:37.262Z,5.82
2022-10-14T23:44:19.682Z,5.85
2022-10-14T23:48:01.917Z,5.20
2022-10-14T23:51:44.435Z,5.68
2022-10-14T23:55:27.532Z,5.80
2022-10-14T23:59:10.453Z,5.90
